Time;durP1;ratioP1;P1;durP2;ratioP2;P2;SDS_P1;SDS_P2;PMS_P1;PMS_P2;Temp;Humidity;BMP_temperature;BMP_pressure;BME280_temperature;BME280_humidity;BME280_pressure;Samples;Min_cycle;Max_cycle;Signal;HPM_P1;HPM_P2
2022/07/04 00:09:34;;;;;;;0.20;0.00;;;24.40;99.90;;;;;;21176966;28;20184;-73
2022/07/04 00:19:38;;;;;;;0.20;0.00;;;24.00;99.90;;;;;;21165391;28;20232;-71
2022/07/04 00:29:43;;;;;;;0.20;0.00;;;23.80;99.90;;;;;;21165716;28;20197;-72
2022/07/04 00:39:47;;;;;;;0.20;0.00;;;23.70;99.90;;;;;;21163227;28;20216;-71
2022/07/04 00:49:52;;;;;;;0.20;0.00;;;23.20;99.90;;;;;;21168192;28;20187;-73
2022/07/04 00:59:56;;;;;;;0.20;0.00;;;23.20;99.90;;;;;;21182176;28;20273;-72
2022/07/04 01:10:03;;;;;;;0.20;0.00;;;22.90;99.90;;;;;;21180859;28;20275;-73
2022/07/04 01:20:12;;;;;;;0.20;0.10;;;22.80;99.90;;;;;;21180367;28;20244;-72
2022/07/04 01:30:15;;;;;;;0.20;0.00;;;22.90;99.90;;;;;;21179917;28;20196;-72
2022/07/04 01:40:21;;;;;;;0.20;0.00;;;22.90;99.90;;;;;;21179136;28;20244;-73
2022/07/04 01:50:25;;;;;;;0.20;0.10;;;22.80;99.90;;;;;;21177479;28;20199;-72
2022/07/04 02:10:51;;;;;;;0.20;0.10;;;22.40;99.90;;;;;;21176134;28;20200;-71
2022/07/04 02:20:56;;;;;;;0.20;0.00;;;22.30;99.90;;;;;;21174626;28;20247;-72
2022/07/04 02:31:00;;;;;;;0.20;0.00;;;22.30;99.90;;;;;;21173295;28;20212;-71
2022/07/04 02:41:05;;;;;;;0.20;0.00;;;22.30;99.90;;;;;;21173566;28;20323;-73
2022/07/04 02:51:09;;;;;;;0.20;0.00;;;22.30;99.90;;;;;;21171936;28;20723;-72
2022/07/04 03:01:15;;;;;;;0.20;0.00;;;22.30;99.90;;;;;;21172092;28;20225;-72
2022/07/04 03:11:19;;;;;;;0.20;0.00;;;22.40;99.90;;;;;;21169934;28;20193;-72
2022/07/04 03:21:24;;;;;;;0.20;0.00;;;22.30;99.90;;;;;;21169490;28;20243;-71
2022/07/04 03:31:30;;;;;;;0.20;0.00;;;22.40;99.90;;;;;;21168327;28;20180;-72
2022/07/04 03:41:36;;;;;;;0.20;0.00;;;22.40;99.90;;;;;;21167864;28;20287;-72
2022/07/04 03:51:39;;;;;;;0.20;0.00;;;22.30;99.90;;;;;;21167522;28;20266;-72
2022/07/04 04:01:45;;;;;;;0.20;0.00;;;22.30;99.90;;;;;;21167304;28;20224;-72
2022/07/04 04:11:49;;;;;;;0.20;0.00;;;22.70;99.90;;;;;;21167397;28;20211;-72
2022/07/04 04:21:54;;;;;;;0.20;0.00;;;23.10;99.90;;;;;;21165022;28;20274;-72
2022/07/04 04:31:58;;;;;;;0.20;0.00;;;23.40;99.90;;;;;;21164472;28;20230;-71
2022/07/04 04:42:04;;;;;;;0.20;0.10;;;23.50;99.90;;;;;;21163742;28;20287;-71
2022/07/04 04:52:09;;;;;;;0.20;0.00;;;23.90;99.90;;;;;;21164517;28;20196;-71
2022/07/04 05:02:14;;;;;;;0.20;0.00;;;24.00;99.90;;;;;;21162902;28;20219;-72
2022/07/04 05:12:19;;;;;;;0.20;0.00;;;24.20;99.90;;;;;;21163147;28;20260;-72
2022/07/04 05:22:24;;;;;;;0.20;0.00;;;24.50;99.90;;;;;;21162830;28;20252;-72
2022/07/04 05:32:28;;;;;;;0.20;0.00;;;25.00;99.90;;;;;;21162107;28;20219;-72
2022/07/04 05:42:35;;;;;;;0.20;0.10;;;25.50;99.90;;;;;;21172646;28;20212;-70
2022/07/04 05:52:39;;;;;;;0.20;0.00;;;26.00;99.90;;;;;;21175857;28;20203;-73
2022/07/04 06:02:44;;;;;;;0.20;0.10;;;26.30;99.90;;;;;;21174037;28;20223;-73
2022/07/04 06:12:48;;;;;;;0.20;0.00;;;26.50;99.90;;;;;;21173788;28;20282;-70
2022/07/04 06:22:53;;;;;;;0.20;0.00;;;26.80;99.90;;;;;;21172676;28;20263;-70
2022/07/04 06:32:59;;;;;;;0.20;0.00;;;27.00;99.90;;;;;;21172079;28;20715;-72
2022/07/04 06:43:05;;;;;;;0.20;0.00;;;27.30;99.90;;;;;;21168872;28;20220;-71
2022/07/04 06:53:10;;;;;;;0.20;0.00;;;27.80;99.90;;;;;;21167113;28;20193;-70
2022/07/04 07:03:15;;;;;;;0.20;0.00;;;28.50;99.90;;;;;;21166181;28;20227;-71
2022/07/04 07:13:19;;;;;;;0.20;0.10;;;28.80;99.90;;;;;;21166169;28;20222;-72
2022/07/04 07:23:25;;;;;;;0.20;0.00;;;28.80;99.90;;;;;;21164225;28;20257;-72
2022/07/04 07:33:29;;;;;;;0.20;0.10;;;29.40;99.90;;;;;;21221740;28;20199;-71
2022/07/04 07:43:34;;;;;;;0.20;0.10;;;28.60;99.90;;;;;;21251291;28;20870;-71
2022/07/04 07:53:37;;;;;;;0.20;0.00;;;28.20;99.90;;;;;;21250394;28;20207;-69
2022/07/04 08:14:25;;;;;;;0.20;0.00;;;28.20;99.90;;;;;;21248334;28;20248;-70
2022/07/04 08:24:30;;;;;;;0.20;0.10;;;27.90;99.90;;;;;;21244109;28;20227;-71
2022/07/04 08:34:34;;;;;;;0.20;0.00;;;27.30;99.90;;;;;;21215616;28;20204;-71
2022/07/04 08:44:41;;;;;;;0.20;0.00;;;27.50;99.90;;;;;;21162358;28;20230;-71
2022/07/04 09:05:10;;;;;;;0.20;0.00;;;27.60;99.90;;;;;;21232845;28;20235;-71
2022/07/04 09:15:16;;;;;;;0.20;0.10;;;27.50;99.90;;;;;;21227223;28;20216;-71
2022/07/04 09:25:23;;;;;;;0.20;0.10;;;27.60;99.90;;;;;;21165608;28;20292;-71
2022/07/04 09:35:29;;;;;;;0.20;0.00;;;28.10;99.90;;;;;;21164357;28;20199;-71
2022/07/04 09:45:35;;;;;;;0.20;0.00;;;28.10;99.90;;;;;;21164142;28;20323;-72
2022/07/04 09:55:40;;;;;;;0.20;0.00;;;28.20;99.90;;;;;;21163507;28;20188;-73
2022/07/04 10:05:46;;;;;;;0.20;0.00;;;28.20;99.90;;;;;;21165521;28;20254;-71
2022/07/04 10:15:57;;;;;;;0.20;0.00;;;28.00;99.90;;;;;;21162707;28;20215;-69
2022/07/04 10:26:03;;;;;;;0.20;0.00;;;28.30;99.90;;;;;;21161911;28;20239;-72
2022/07/04 10:36:16;;;;;;;0.20;0.00;;;28.40;99.90;;;;;;21160975;28;20263;-71
2022/07/04 10:46:45;;;;;;;0.20;0.03;;;28.70;99.90;;;;;;21160623;28;20284;-70
2022/07/04 10:56:54;;;;;;;0.20;0.00;;;29.20;99.90;;;;;;21160951;28;20196;-72
2022/07/04 11:07:00;;;;;;;0.20;0.00;;;29.20;99.90;;;;;;21156904;28;20247;-71
2022/07/04 11:17:04;;;;;;;0.20;0.10;;;29.40;99.90;;;;;;21212823;28;20226;-70
2022/07/04 11:27:10;;;;;;;0.20;0.10;;;29.90;99.90;;;;;;21202779;28;20242;-72
2022/07/04 11:37:14;;;;;;;0.20;0.00;;;29.90;99.90;;;;;;21156502;28;20207;-73
2022/07/04 11:47:21;;;;;;;0.20;0.00;;;31.00;99.90;;;;;;21199286;28;20234;-74
2022/07/04 11:57:26;;;;;;;0.20;0.00;;;31.50;99.90;;;;;;21226205;28;20215;-75
2022/07/04 12:07:34;;;;;;;0.20;0.00;;;31.40;99.90;;;;;;21239886;28;20223;-74
2022/07/04 12:17:39;;;;;;;0.20;0.00;;;31.50;99.90;;;;;;21237434;28;20238;-74
2022/07/04 12:27:53;;;;;;;0.20;0.00;;;32.20;99.90;;;;;;21233277;28;20220;-72
2022/07/04 12:38:04;;;;;;;0.20;0.00;;;32.20;99.90;;;;;;21235242;28;20221;-73
2022/07/04 12:48:20;;;;;;;0.20;0.00;;;31.80;99.90;;;;;;21243369;28;20249;-68
2022/07/04 12:58:24;;;;;;;0.20;0.00;;;31.40;99.90;;;;;;21181564;28;20206;-72
2022/07/04 13:08:29;;;;;;;0.20;0.00;;;33.00;99.90;;;;;;21167193;28;20223;-72
2022/07/04 13:18:33;;;;;;;0.20;0.00;;;32.50;99.90;;;;;;21165079;28;20300;-70
2022/07/04 13:28:38;;;;;;;0.20;0.00;;;32.50;99.90;;;;;;21166568;28;20230;-72
2022/07/04 13:38:42;;;;;;;0.20;0.00;;;32.30;99.90;;;;;;21165165;28;20184;-71
2022/07/04 13:49:08;;;;;;;0.20;0.00;;;32.60;99.90;;;;;;21164622;28;20240;-70
2022/07/04 13:59:16;;;;;;;0.20;0.00;;;32.70;99.90;;;;;;21161935;28;20192;-71
2022/07/04 14:09:21;;;;;;;0.20;0.00;;;33.10;99.90;;;;;;21162765;28;20230;-72
2022/07/04 14:19:25;;;;;;;0.20;0.00;;;33.40;99.90;;;;;;21160706;28;20300;-72
2022/07/04 14:29:30;;;;;;;0.20;0.00;;;32.90;99.90;;;;;;21161632;28;20283;-72
2022/07/04 14:39:34;;;;;;;0.20;0.00;;;33.90;99.90;;;;;;21159108;28;20263;-72
2022/07/04 14:49:39;;;;;;;0.20;0.00;;;34.40;99.90;;;;;;21157970;28;20297;-72
2022/07/04 14:59:43;;;;;;;0.20;0.00;;;33.70;99.90;;;;;;21158685;28;20211;-71
2022/07/04 15:09:48;;;;;;;0.20;0.00;;;33.50;99.90;;;;;;21180865;28;20223;-72
2022/07/04 15:30:15;;;;;;;0.20;0.00;;;34.60;99.90;;;;;;21235626;28;20195;-74
2022/07/04 15:40:19;;;;;;;0.20;0.00;;;33.80;99.90;;;;;;21238627;28;20225;-73
2022/07/04 15:50:24;;;;;;;0.20;0.00;;;34.80;99.90;;;;;;21234401;28;20212;-71
2022/07/04 16:00:28;;;;;;;0.20;0.00;;;34.60;99.90;;;;;;21154972;28;20223;-71
2022/07/04 16:10:33;;;;;;;0.20;0.00;;;34.20;99.90;;;;;;21152661;28;20278;-73
2022/07/04 16:20:37;;;;;;;0.20;0.00;;;33.40;99.90;;;;;;21148729;28;20227;-71
2022/07/04 16:30:42;;;;;;;0.20;0.00;;;33.00;99.90;;;;;;21150235;28;20219;-72
2022/07/04 16:40:46;;;;;;;0.20;0.00;;;32.20;99.90;;;;;;21150317;28;20223;-71
2022/07/04 16:50:51;;;;;;;0.20;0.00;;;32.30;99.90;;;;;;21151311;28;20232;-72
2022/07/04 17:00:56;;;;;;;0.20;0.00;;;31.50;99.90;;;;;;21151706;28;20237;-72
2022/07/04 17:11:02;;;;;;;0.20;0.00;;;31.80;99.90;;;;;;21149773;28;20196;-72
2022/07/04 17:21:06;;;;;;;0.20;0.00;;;32.90;99.90;;;;;;21151224;28;20288;-72
2022/07/04 17:31:11;;;;;;;0.20;0.00;;;32.90;99.90;;;;;;21152686;28;20219;-71
2022/07/04 17:51:38;;;;;;;0.20;0.00;;;32.10;99.90;;;;;;21165936;28;20227;-70
2022/07/04 18:01:42;;;;;;;0.20;0.00;;;31.70;99.90;;;;;;21162568;28;20344;-71
2022/07/04 18:11:47;;;;;;;0.20;0.00;;;31.40;99.90;;;;;;21162153;28;20196;-71
2022/07/04 18:21:52;;;;;;;0.20;0.00;;;31.10;99.90;;;;;;21160623;28;20224;-72
2022/07/04 18:31:57;;;;;;;0.20;0.00;;;31.20;99.90;;;;;;21161273;28;20188;-71
2022/07/04 18:52:24;;;;;;;0.20;0.00;;;30.00;99.90;;;;;;21158437;28;20211;-72
2022/07/04 19:02:28;;;;;;;0.20;0.00;;;28.90;99.90;;;;;;21160512;28;20294;-72
2022/07/04 19:12:34;;;;;;;0.20;0.00;;;27.90;99.90;;;;;;21239690;28;20191;-71
2022/07/04 19:22:38;;;;;;;0.20;0.10;;;27.20;99.90;;;;;;21241349;28;20285;-71
2022/07/04 19:32:43;;;;;;;0.20;0.00;;;26.70;99.90;;;;;;21234066;28;20311;-68
2022/07/04 19:42:48;;;;;;;0.20;0.00;;;26.40;99.90;;;;;;21238150;28;20279;-70
2022/07/04 19:52:53;;;;;;;0.20;0.00;;;26.20;99.90;;;;;;21211194;28;20260;-72
2022/07/04 20:02:57;;;;;;;0.20;0.00;;;26.00;99.90;;;;;;21154012;28;20279;-71
2022/07/04 20:13:02;;;;;;;0.20;0.00;;;26.00;99.90;;;;;;21152194;28;20203;-72
2022/07/04 20:23:07;;;;;;;0.20;0.00;;;25.80;99.90;;;;;;21154161;28;20232;-72
2022/07/04 20:33:12;;;;;;;0.20;0.00;;;25.30;99.90;;;;;;21153035;28;20251;-71
2022/07/04 20:43:16;;;;;;;0.20;0.00;;;25.40;99.90;;;;;;21152994;28;20279;-73
2022/07/04 20:53:21;;;;;;;0.20;0.00;;;25.30;99.90;;;;;;21152091;28;20213;-73
2022/07/04 21:03:25;;;;;;;0.20;0.00;;;24.80;99.90;;;;;;21151322;28;20283;-67
2022/07/04 21:13:30;;;;;;;0.20;0.10;;;25.00;99.90;;;;;;21166047;28;20200;-71
2022/07/04 21:23:34;;;;;;;0.20;0.00;;;24.80;99.90;;;;;;21166925;28;20259;-72
2022/07/04 21:33:39;;;;;;;0.20;0.10;;;24.70;99.90;;;;;;21150478;28;20184;-71
2022/07/04 21:43:43;;;;;;;0.20;0.00;;;24.60;99.90;;;;;;21165925;28;20330;-71
2022/07/04 21:53:48;;;;;;;0.20;0.00;;;24.80;99.90;;;;;;21164746;28;20204;-71
2022/07/04 22:03:52;;;;;;;0.20;0.00;;;24.50;99.90;;;;;;21164094;28;20373;-72
2022/07/04 22:13:57;;;;;;;0.20;0.00;;;24.40;99.90;;;;;;21165130;28;20238;-71
2022/07/04 22:24:01;;;;;;;0.20;0.00;;;24.30;99.90;;;;;;21164974;28;20307;-71
2022/07/04 22:34:07;;;;;;;0.20;0.00;;;24.10;99.90;;;;;;21166310;28;20215;-71
2022/07/04 22:44:10;;;;;;;0.20;0.00;;;24.00;99.90;;;;;;21165606;28;20238;-70
2022/07/04 23:04:43;;;;;;;0.20;0.00;;;23.90;99.90;;;;;;21147784;28;20280;-72
2022/07/04 23:14:50;;;;;;;0.20;0.00;;;23.90;99.90;;;;;;21173230;28;20207;-71
2022/07/04 23:24:54;;;;;;;0.20;0.00;;;23.80;99.90;;;;;;21168314;28;20247;-70
2022/07/04 23:34:59;;;;;;;0.20;0.00;;;23.70;99.90;;;;;;21168113;28;20208;-72
2022/07/04 23:45:04;;;;;;;0.20;0.00;;;23.50;99.90;;;;;;21167597;28;20238;-72
2022/07/04 23:55:10;;;;;;;0.20;0.10;;;23.30;99.90;;;;;;21166246;28;20253;-71
